Time;durP1;ratioP1;P1;durP2;ratioP2;P2;SDS_P1;SDS_P2;PMS_P1;PMS_P2;Temp;Humidity;BMP_temperature;BMP_pressure;BME280_temperature;BME280_humidity;BME280_pressure;Samples;Min_cycle;Max_cycle;Signal;HPM_P1;HPM_P2
2020/12/27 00:02:02;;;;;;;43.40;18.47;;;;;;;-3.82;80.18;99023.48;250524;1149;23023;-78
2020/12/27 00:07:14;;;;;;;45.48;17.92;;;;;;;-3.85;80.25;99005.54;250135;1148;22989;-78
2020/12/27 00:12:16;;;;;;;39.87;15.50;;;;;;;-3.87;80.03;99007.55;250063;1156;22936;-78
2020/12/27 00:17:19;;;;;;;45.27;16.37;;;;;;;-3.88;80.50;99001.48;250246;1148;22953;-80
2020/12/27 00:22:21;;;;;;;44.90;16.13;;;;;;;-3.89;80.25;99006.91;250245;1155;23295;-78
2020/12/27 00:27:23;;;;;;;45.10;16.50;;;;;;;-3.93;80.12;98985.56;250210;1150;23024;-79
2020/12/27 00:32:28;;;;;;;43.00;16.97;;;;;;;-3.96;80.34;98986.74;250192;1156;23058;-77
2020/12/27 00:37:32;;;;;;;43.63;16.43;;;;;;;-3.97;80.14;98990.34;250169;1151;22926;-77
2020/12/27 00:42:34;;;;;;;37.87;15.80;;;;;;;-3.92;80.58;98970.66;250124;1148;26402;-77
2020/12/27 00:47:36;;;;;;;43.93;16.23;;;;;;;-3.95;80.36;98964.78;250127;1148;22960;-78
2020/12/27 00:52:38;;;;;;;38.87;15.00;;;;;;;-3.96;80.43;98957.95;250070;1148;23095;-78
2020/12/27 00:57:40;;;;;;;33.43;14.23;;;;;;;-3.94;80.42;98962.99;250134;1148;22929;-79
2020/12/27 01:02:43;;;;;;;35.85;14.75;;;;;;;-3.93;80.56;98969.03;249862;1151;22993;-79
2020/12/27 01:08:20;;;;;;;31.43;13.27;;;;;;;-3.96;80.01;98962.36;250087;1148;22924;-78
2020/12/27 01:13:22;;;;;;;31.77;13.27;;;;;;;-3.94;80.51;98960.38;250498;1155;22917;-79
2020/12/27 01:18:24;;;;;;;32.67;13.63;;;;;;;-3.99;80.53;98947.04;250394;1153;22939;-78
2020/12/27 01:23:28;;;;;;;37.13;15.00;;;;;;;-4.04;80.11;98942.38;250205;1148;22912;-77
2020/12/27 01:28:31;;;;;;;37.35;14.75;;;;;;;-4.09;80.03;98933.48;250180;1148;22921;-78
2020/12/27 01:33:37;;;;;;;43.27;15.70;;;;;;;-4.14;80.28;98932.23;250188;1148;26398;-77
2020/12/27 01:38:41;;;;;;;35.23;14.33;;;;;;;-4.14;80.29;98928.79;250023;1150;23095;-79
2020/12/27 01:44:01;;;;;;;31.30;13.67;;;;;;;-4.15;80.03;98919.34;250328;1150;22938;-77
2020/12/27 01:49:05;;;;;;;31.10;12.60;;;;;;;-4.19;79.98;98911.05;250125;1150;23461;-78
2020/12/27 01:54:08;;;;;;;26.40;10.90;;;;;;;-4.18;80.18;98896.98;250226;1151;22912;-78
2020/12/27 01:59:31;;;;;;;34.73;12.77;;;;;;;-4.17;80.66;98901.23;250100;1151;23011;-78
2020/12/27 02:04:38;;;;;;;30.83;12.20;;;;;;;-4.15;80.51;98893.19;250124;1150;22979;-77
2020/12/27 02:09:44;;;;;;;31.77;11.70;;;;;;;-4.14;80.56;98882.52;250350;1148;23042;-80
2020/12/27 02:14:52;;;;;;;26.47;11.00;;;;;;;-4.14;80.67;98876.47;250112;1155;22996;-79
2020/12/27 02:19:56;;;;;;;23.67;10.70;;;;;;;-4.16;79.83;98857.55;250038;1151;22941;-79
2020/12/27 02:25:12;;;;;;;19.70;9.83;;;;;;;-4.19;79.85;98844.85;250343;1151;22958;-79
2020/12/27 02:30:16;;;;;;;18.77;8.20;;;;;;;-4.16;80.61;98837.41;250059;1148;22932;-77
2020/12/27 02:35:19;;;;;;;15.17;7.60;;;;;;;-4.15;80.30;98812.08;250177;1148;23021;-78
2020/12/27 02:40:24;;;;;;;12.87;6.77;;;;;;;-4.17;79.77;98811.44;250389;1151;22938;-78
2020/12/27 02:45:47;;;;;;;12.37;6.17;;;;;;;-4.18;80.24;98797.56;250298;1148;22947;-78
2020/12/27 02:51:04;;;;;;;14.67;6.87;;;;;;;-4.16;80.23;98798.17;250158;1148;22931;-76
2020/12/27 02:56:06;;;;;;;14.60;6.13;;;;;;;-4.12;80.07;98793.38;250059;1155;22959;-78
2020/12/27 03:01:09;;;;;;;14.07;6.00;;;;;;;-4.10;80.29;98782.71;250361;1153;23021;-77
2020/12/27 03:06:30;;;;;;;11.23;5.97;;;;;;;-4.10;80.51;98780.89;250515;1146;22924;-77
2020/12/27 03:11:38;;;;;;;11.73;5.67;;;;;;;-4.10;80.10;98773.05;250023;1148;22940;-78
2020/12/27 03:16:41;;;;;;;13.70;6.20;;;;;;;-4.09;80.01;98768.64;250103;1150;23560;-78
2020/12/27 03:22:07;;;;;;;13.25;6.00;;;;;;;-4.07;80.30;98772.68;250361;1150;22944;-78
2020/12/27 03:27:26;;;;;;;15.43;5.53;;;;;;;-4.06;80.15;98763.80;250560;1151;22916;-77
2020/12/27 03:32:28;;;;;;;8.53;4.77;;;;;;;-4.08;79.72;98749.33;250043;1150;22978;-76
2020/12/27 03:37:35;;;;;;;9.47;4.63;;;;;;;-4.06;79.99;98742.08;250129;1148;22983;-78
2020/12/27 03:42:56;;;;;;;8.40;4.50;;;;;;;-4.06;79.52;98737.64;250353;1148;22941;-79
2020/12/27 03:47:58;;;;;;;8.10;4.90;;;;;;;-4.06;79.75;98740.25;249979;1151;22930;-77
2020/12/27 03:53:20;;;;;;;9.43;4.80;;;;;;;-4.09;79.29;98727.56;249725;1151;22949;-76
2020/12/27 03:58:30;;;;;;;7.50;4.28;;;;;;;-4.08;79.76;98723.16;250064;1151;22874;-81
2020/12/27 04:03:38;;;;;;;6.73;4.60;;;;;;;-4.10;79.64;98712.06;250047;1148;22912;-78
2020/12/27 04:08:48;;;;;;;9.20;4.50;;;;;;;-4.12;79.96;98707.83;250304;1148;22924;-76
2020/12/27 04:13:52;;;;;;;6.23;4.20;;;;;;;-4.10;79.44;98688.52;250404;1150;23905;-77
2020/12/27 04:18:55;;;;;;;7.43;4.13;;;;;;;-4.11;79.50;98685.11;250454;1152;22950;-78
2020/12/27 04:24:10;;;;;;;7.07;3.67;;;;;;;-4.10;79.19;98672.81;250427;1148;22947;-77
2020/12/27 04:29:14;;;;;;;7.70;3.60;;;;;;;-4.09;79.83;98656.92;250082;1148;23002;-78
2020/12/27 04:34:20;;;;;;;7.93;4.03;;;;;;;-4.05;79.70;98659.97;250585;1148;23340;-79
2020/12/27 04:39:22;;;;;;;7.70;4.57;;;;;;;-4.06;79.58;98650.49;250089;1151;22954;-78
2020/12/27 04:44:27;;;;;;;7.73;4.43;;;;;;;-4.06;79.05;98653.11;250477;1148;22935;-80
2020/12/27 04:49:33;;;;;;;9.60;4.47;;;;;;;-4.07;79.73;98651.48;250108;1156;22954;-79
2020/12/27 04:54:41;;;;;;;8.03;4.70;;;;;;;-4.04;79.71;98644.06;250383;1147;25964;-76
2020/12/27 04:59:56;;;;;;;7.57;4.57;;;;;;;-4.01;79.63;98646.28;250587;1148;23362;-77
2020/12/27 05:05:21;;;;;;;7.87;4.87;;;;;;;-4.00;79.42;98641.84;250110;1148;22925;-78
2020/12/27 05:10:24;;;;;;;9.33;4.60;;;;;;;-4.00;79.14;98631.38;250303;1148;22947;-79
2020/12/27 05:15:38;;;;;;;8.50;4.90;;;;;;;-4.05;78.73;98621.52;250686;1150;23069;-76
2020/12/27 05:20:45;;;;;;;6.63;4.57;;;;;;;-4.06;79.11;98611.25;250247;1152;22909;-78
2020/12/27 05:25:48;;;;;;;6.40;3.83;;;;;;;-4.05;79.08;98618.10;250318;1148;22924;-79
2020/12/27 05:31:19;;;;;;;5.73;3.80;;;;;;;-4.05;79.16;98610.25;249668;1148;27167;-77
2020/12/27 05:36:40;;;;;;;10.77;4.30;;;;;;;-4.08;79.20;98615.88;250116;1150;22935;-79
2020/12/27 05:42:14;;;;;;;12.43;4.87;;;;;;;-4.11;79.06;98609.23;250115;1147;22956;-77
2020/12/27 05:47:17;;;;;;;11.73;5.50;;;;;;;-4.11;79.43;98609.23;249984;1150;23397;-77
2020/12/27 05:52:33;;;;;;;11.87;5.27;;;;;;;-4.18;78.77;98597.94;250111;1148;22915;-78
2020/12/27 05:57:42;;;;;;;10.83;5.63;;;;;;;-4.24;78.73;98591.69;250297;1155;22941;-78
2020/12/27 06:02:56;;;;;;;13.80;7.07;;;;;;;-4.26;78.98;98591.06;250162;1148;22955;-77
2020/12/27 06:08:21;;;;;;;15.13;6.93;;;;;;;-4.28;79.29;98600.11;250118;1148;27319;-79
2020/12/27 06:13:36;;;;;;;16.07;7.53;;;;;;;-4.27;79.11;98607.75;250330;1147;23008;-77
2020/12/27 06:19:19;;;;;;;23.70;9.20;;;;;;;-4.30;79.15;98608.15;250317;1148;22987;-77
2020/12/27 06:24:24;;;;;;;22.90;9.53;;;;;;;-4.28;79.50;98611.39;250344;1148;22968;-78
2020/12/27 06:29:34;;;;;;;24.43;9.50;;;;;;;-4.31;79.48;98612.59;250520;1148;23304;-78
2020/12/27 06:34:37;;;;;;;23.70;9.83;;;;;;;-4.34;79.43;98610.37;250433;1148;22890;-78
2020/12/27 06:39:45;;;;;;;22.05;9.00;;;;;;;-4.38;79.58;98616.16;250200;1155;23725;-77
2020/12/27 06:44:57;;;;;;;18.97;7.97;;;;;;;-4.39;79.48;98625.00;249933;1148;22957;-78
2020/12/27 06:50:20;;;;;;;15.07;8.30;;;;;;;-4.52;79.11;98615.30;250035;1148;22929;-77
2020/12/27 06:55:33;;;;;;;15.97;8.40;;;;;;;-4.58;79.06;98614.27;250022;1148;22980;-79
2020/12/27 07:00:40;;;;;;;20.90;9.25;;;;;;;-4.53;79.61;98605.86;250137;1148;26373;-79
2020/12/27 07:05:50;;;;;;;21.37;9.55;;;;;;;-4.52;79.40;98607.45;250125;1148;22947;-78
2020/12/27 07:10:58;;;;;;;27.07;11.70;;;;;;;-4.46;80.16;98598.84;250742;1148;22987;-77
2020/12/27 07:16:03;;;;;;;33.75;15.45;;;;;;;-4.36;80.10;98580.97;250405;1148;22947;-79
2020/12/27 07:21:13;;;;;;;38.03;15.90;;;;;;;-4.31;79.63;98573.35;250081;1156;23021;-79
2020/12/27 07:26:15;;;;;;;35.93;14.20;;;;;;;-4.35;79.05;98569.52;250439;1150;22905;-77
2020/12/27 07:31:18;;;;;;;27.37;12.83;;;;;;;-4.33;79.21;98558.86;250528;1149;23011;-80
2020/12/27 07:36:24;;;;;;;28.73;13.43;;;;;;;-4.25;79.53;98555.23;250369;1148;23012;-82
2020/12/27 07:41:38;;;;;;;29.77;12.70;;;;;;;-4.14;79.25;98549.42;250189;1156;22940;-78
2020/12/27 07:46:44;;;;;;;31.77;13.63;;;;;;;-3.97;79.28;98537.59;250420;1148;23059;-78
2020/12/27 07:51:49;;;;;;;28.40;12.80;;;;;;;-3.82;79.22;98528.73;250609;1153;22957;-79
2020/12/27 07:56:51;;;;;;;26.40;12.33;;;;;;;-3.67;79.51;98521.48;250247;1148;22882;-76
2020/12/27 08:01:54;;;;;;;24.07;11.93;;;;;;;-3.49;79.14;98520.88;250446;1148;22986;-78
2020/12/27 08:06:56;;;;;;;23.13;11.10;;;;;;;-3.28;78.43;98508.56;250310;1147;23004;-80
2020/12/27 08:12:16;;;;;;;21.57;10.67;;;;;;;-3.12;78.55;98502.06;250368;1152;22933;-76
2020/12/27 08:17:19;;;;;;;26.25;11.55;;;;;;;-2.27;80.26;98491.41;250002;1156;22929;-80
2020/12/27 08:22:21;;;;;;;28.00;12.15;;;;;;;-1.96;78.36;98491.59;250759;1148;22921;-77
2020/12/27 08:27:23;;;;;;;30.97;13.63;;;;;;;-1.95;77.43;98487.95;250312;1148;22919;-81
2020/12/27 08:32:25;;;;;;;23.50;10.95;;;;;;;-1.95;76.91;98496.62;250278;1148;23108;-78
2020/12/27 08:37:30;;;;;;;25.23;11.47;;;;;;;-1.94;77.51;98498.23;249963;1150;22929;-78
2020/12/27 08:42:42;;;;;;;27.20;12.57;;;;;;;-1.87;77.36;98498.20;250252;1155;23487;-78
2020/12/27 08:48:10;;;;;;;33.03;13.83;;;;;;;-1.78;77.47;98510.02;250185;1148;27196;-78
2020/12/27 08:53:13;;;;;;;28.73;12.97;;;;;;;-1.66;77.04;98491.76;250028;1155;22960;-78
2020/12/27 08:58:16;;;;;;;34.50;15.75;;;;;;;-1.47;76.91;98468.96;250111;1150;22929;-79
2020/12/27 09:03:19;;;;;;;35.00;14.50;;;;;;;-1.14;75.77;98470.42;250335;1151;22950;-77
2020/12/27 09:08:23;;;;;;;43.87;17.33;;;;;;;-1.10;75.56;98462.91;250217;1150;26379;-79
2020/12/27 09:13:35;;;;;;;52.50;21.03;;;;;;;-1.03;74.96;98442.60;250175;1148;22931;-78
2020/12/27 09:18:37;;;;;;;57.40;25.67;;;;;;;-0.92;75.00;98436.59;249900;1150;22924;-78
2020/12/27 09:23:39;;;;;;;61.65;25.00;;;;;;;-0.81;75.48;98429.79;249979;1156;23036;-77
2020/12/27 09:28:42;;;;;;;63.90;25.00;;;;;;;-0.68;75.68;98428.02;250068;1148;23038;-76
2020/12/27 09:33:47;;;;;;;59.10;25.03;;;;;;;-0.61;76.09;98397.94;250136;1156;22931;-76
2020/12/27 09:38:50;;;;;;;52.00;22.07;;;;;;;-0.49;75.54;98391.90;250043;1150;23016;-77
2020/12/27 09:43:55;;;;;;;44.90;18.23;;;;;;;-0.39;74.61;98387.70;249975;1156;22939;-78
2020/12/27 09:48:58;;;;;;;34.65;16.85;;;;;;;-0.28;74.98;98366.88;249802;1148;23011;-75
2020/12/27 09:54:00;;;;;;;45.95;18.60;;;;;;;-0.23;74.17;98362.53;249881;1148;23009;-78
2020/12/27 09:59:02;;;;;;;40.73;18.23;;;;;;;-0.18;74.43;98346.86;249829;1148;23083;-77
2020/12/27 10:04:04;;;;;;;32.55;14.70;;;;;;;-0.10;73.03;98318.58;249919;1156;23172;-77
2020/12/27 10:09:06;;;;;;;30.67;14.80;;;;;;;0.01;73.72;98309.08;250088;1148;23055;-77
2020/12/27 10:14:08;;;;;;;30.05;13.30;;;;;;;0.13;72.95;98294.86;250086;1150;22924;-76
2020/12/27 10:19:10;;;;;;;27.80;12.55;;;;;;;0.25;73.18;98300.12;249792;1148;22940;-75
2020/12/27 10:24:13;;;;;;;23.53;10.80;;;;;;;0.41;73.35;98279.34;249784;1148;22938;-76
2020/12/27 10:29:16;;;;;;;25.10;10.47;;;;;;;0.56;72.64;98263.00;249925;1151;23014;-76
2020/12/27 10:34:19;;;;;;;28.60;13.25;;;;;;;0.72;72.63;98243.79;249849;1148;22953;-76
2020/12/27 10:39:26;;;;;;;28.47;12.37;;;;;;;0.87;73.39;98222.17;250218;1148;23089;-77
2020/12/27 10:44:28;;;;;;;34.73;14.23;;;;;;;0.93;71.90;98215.14;250292;1153;22931;-76
2020/12/27 10:49:30;;;;;;;24.70;10.83;;;;;;;1.07;72.46;98211.14;250075;1148;22947;-76
2020/12/27 10:54:32;;;;;;;24.35;10.00;;;;;;;1.21;72.54;98193.14;249993;1148;23060;-75
2020/12/27 10:59:35;;;;;;;18.85;8.30;;;;;;;1.32;71.05;98191.47;250187;1147;22928;-76
2020/12/27 11:04:37;;;;;;;20.70;9.05;;;;;;;1.35;71.51;98196.25;249984;1148;22953;-75
2020/12/27 11:09:41;;;;;;;19.00;8.05;;;;;;;1.47;71.38;98172.38;250113;1148;23346;-76
2020/12/27 11:14:44;;;;;;;16.40;7.60;;;;;;;1.58;70.49;98162.77;249932;1148;22929;-77
2020/12/27 11:19:46;;;;;;;20.77;9.23;;;;;;;1.63;69.86;98145.14;249999;1156;22931;-76
2020/12/27 11:24:48;;;;;;;17.30;7.75;;;;;;;1.75;70.63;98138.94;249995;1148;22959;-75
2020/12/27 11:29:50;;;;;;;16.57;7.57;;;;;;;1.81;70.61;98130.84;249965;1148;23089;-77
2020/12/27 11:34:52;;;;;;;19.10;8.73;;;;;;;1.95;70.98;98111.98;249946;1148;22929;-76
2020/12/27 11:39:54;;;;;;;18.73;9.03;;;;;;;2.08;70.45;98100.22;249864;1148;23016;-76
2020/12/27 11:44:57;;;;;;;14.03;7.03;;;;;;;2.16;70.02;98092.63;250203;1153;23022;-75
2020/12/27 11:49:59;;;;;;;13.83;7.20;;;;;;;2.25;70.05;98063.90;249833;1148;22981;-76
2020/12/27 11:55:01;;;;;;;11.53;6.07;;;;;;;2.28;68.68;98036.98;249898;1156;22931;-76
2020/12/27 12:00:04;;;;;;;13.90;5.93;;;;;;;2.35;69.47;98010.33;249888;1148;23064;-76
2020/12/27 12:05:12;;;;;;;10.45;5.10;;;;;;;2.42;68.78;97987.14;249838;1148;22931;-76
2020/12/27 12:10:14;;;;;;;10.60;5.17;;;;;;;2.43;68.45;97970.20;249764;1150;23018;-74
2020/12/27 12:15:16;;;;;;;10.43;5.43;;;;;;;2.46;68.43;97948.54;249779;1155;22927;-75
2020/12/27 12:25:41;;;;;;;8.40;4.43;;;;;;;2.52;67.60;97920.31;249790;1155;23092;-75
2020/12/27 12:30:44;;;;;;;8.57;4.40;;;;;;;2.55;66.92;97898.64;250083;1148;22983;-77
2020/12/27 12:35:46;;;;;;;7.53;4.60;;;;;;;2.59;67.02;97888.33;249890;1148;22957;-76
2020/12/27 12:40:48;;;;;;;8.95;4.30;;;;;;;2.59;66.27;97877.75;249816;1148;27253;-76
2020/12/27 12:45:50;;;;;;;6.60;3.53;;;;;;;2.60;65.76;97869.55;250264;1148;22937;-77
2020/12/27 12:50:52;;;;;;;6.70;3.40;;;;;;;2.58;64.83;97849.73;250015;1148;23409;-75
2020/12/27 12:55:54;;;;;;;5.35;2.90;;;;;;;2.56;65.18;97820.89;249800;1150;23521;-78
2020/12/27 13:00:56;;;;;;;8.17;4.20;;;;;;;2.55;65.57;97816.67;249868;1148;22914;-76
2020/12/27 13:05:57;;;;;;;8.20;4.33;;;;;;;2.54;65.10;97821.15;250226;1148;22971;-77
2020/12/27 13:10:59;;;;;;;9.83;4.53;;;;;;;2.52;64.21;97812.70;250138;1148;23019;-76
2020/12/27 13:16:03;;;;;;;7.80;4.40;;;;;;;2.47;63.87;97794.16;250313;1150;22909;-77
2020/12/27 13:21:05;;;;;;;9.40;4.20;;;;;;;2.47;63.81;97796.80;250127;1148;23034;-77
2020/12/27 13:26:07;;;;;;;9.67;4.77;;;;;;;2.45;63.34;97787.54;250132;1148;23011;-77
2020/12/27 13:31:10;;;;;;;7.97;3.67;;;;;;;2.43;63.18;97761.37;249971;1148;24625;-78
2020/12/27 13:36:14;;;;;;;9.80;4.50;;;;;;;2.40;62.33;97748.67;250464;1148;22944;-76
2020/12/27 13:41:16;;;;;;;7.20;3.83;;;;;;;2.36;62.26;97748.39;249860;1148;22924;-78
2020/12/27 13:46:18;;;;;;;8.33;3.97;;;;;;;2.34;61.50;97739.16;250513;1148;22892;-79
2020/12/27 13:51:21;;;;;;;9.25;4.80;;;;;;;2.31;61.63;97714.03;249997;1148;22954;-76
2020/12/27 13:56:28;;;;;;;10.07;5.00;;;;;;;2.29;61.36;97720.63;250078;1148;26520;-76
2020/12/27 14:01:30;;;;;;;11.50;6.27;;;;;;;2.22;61.41;97719.03;250143;1148;23017;-76
2020/12/27 14:06:37;;;;;;;27.13;13.53;;;;;;;2.16;61.58;97719.27;250364;1148;23011;-76
2020/12/27 14:11:40;;;;;;;24.10;11.50;;;;;;;2.07;62.81;97716.34;250316;1148;22929;-77
2020/12/27 14:16:47;;;;;;;25.60;13.10;;;;;;;1.85;63.22;97701.45;249956;1156;22975;-76
2020/12/27 14:21:53;;;;;;;33.23;16.60;;;;;;;1.60;64.54;97701.33;250111;1148;23027;-77
2020/12/27 14:26:55;;;;;;;40.43;18.07;;;;;;;1.34;64.77;97693.25;250455;1152;22974;-78
2020/12/27 14:31:57;;;;;;;36.47;18.13;;;;;;;1.11;65.78;97691.80;250323;1148;22928;-78
2020/12/27 14:36:59;;;;;;;36.27;16.93;;;;;;;0.88;65.53;97680.52;250080;1148;22928;-77
2020/12/27 14:42:01;;;;;;;38.55;18.75;;;;;;;0.71;66.70;97667.47;250037;1148;22928;-77
2020/12/27 14:47:03;;;;;;;38.80;18.27;;;;;;;0.57;66.02;97650.49;250174;1150;22928;-76
2020/12/27 14:52:05;;;;;;;50.93;21.60;;;;;;;0.46;65.83;97644.33;250073;1148;22993;-78
2020/12/27 14:57:07;;;;;;;43.87;17.33;;;;;;;0.38;65.78;97645.59;250089;1148;22926;-75
2020/12/27 15:02:10;;;;;;;39.63;16.97;;;;;;;0.31;65.85;97632.61;250078;1155;22956;-79
2020/12/27 15:07:12;;;;;;;33.57;15.43;;;;;;;0.25;66.73;97627.54;250112;1148;22939;-77
2020/12/27 15:12:14;;;;;;;42.03;18.37;;;;;;;0.15;66.42;97621.16;250016;1148;22924;-75
2020/12/27 15:17:17;;;;;;;43.93;18.60;;;;;;;0.06;66.41;97604.20;250259;1148;22953;-79
2020/12/27 15:22:20;;;;;;;40.85;19.00;;;;;;;-0.02;66.66;97605.42;250623;1155;22966;-78
2020/12/27 15:27:24;;;;;;;50.10;21.13;;;;;;;-0.06;67.31;97591.16;250134;1148;22953;-77
2020/12/27 15:32:27;;;;;;;42.95;17.70;;;;;;;-0.13;67.56;97585.30;250106;1155;23062;-77
2020/12/27 15:37:29;;;;;;;39.00;17.00;;;;;;;-0.16;67.62;97569.22;250013;1151;23439;-77
2020/12/27 15:42:31;;;;;;;41.40;16.90;;;;;;;-0.20;67.65;97568.91;249919;1156;22914;-75
2020/12/27 15:47:34;;;;;;;31.83;15.33;;;;;;;-0.25;68.43;97553.87;250049;1148;22928;-76
2020/12/27 15:52:36;;;;;;;31.60;13.85;;;;;;;-0.29;68.11;97541.46;250128;1148;22969;-77
2020/12/27 15:57:38;;;;;;;37.03;17.33;;;;;;;-0.33;68.41;97537.73;250091;1148;22954;-77
2020/12/27 16:02:42;;;;;;;29.80;14.60;;;;;;;-0.41;68.29;97526.59;250100;1148;22954;-76
2020/12/27 16:07:44;;;;;;;39.63;15.60;;;;;;;-0.47;68.14;97513.64;250167;1151;22932;-78
2020/12/27 16:12:45;;;;;;;36.50;16.90;;;;;;;-0.54;69.00;97517.25;250095;1148;22889;-76
2020/12/27 16:17:48;;;;;;;31.43;14.43;;;;;;;-0.53;68.72;97504.91;250361;1148;22944;-76
2020/12/27 16:22:50;;;;;;;34.17;14.13;;;;;;;-0.58;68.91;97494.32;250230;1151;22960;-78
2020/12/27 16:27:52;;;;;;;35.07;15.30;;;;;;;-0.61;69.59;97486.93;250129;1151;22945;-76
2020/12/27 16:32:54;;;;;;;46.53;18.47;;;;;;;-0.63;69.74;97465.33;250285;1148;22928;-77
2020/12/27 16:37:56;;;;;;;44.60;20.37;;;;;;;-0.71;69.92;97467.36;250218;1151;22935;-75
2020/12/27 16:42:59;;;;;;;46.70;20.80;;;;;;;-0.75;69.58;97457.59;250217;1151;22934;-77
2020/12/27 16:48:01;;;;;;;43.23;20.93;;;;;;;-0.78;68.92;97448.35;250178;1148;22941;-75
2020/12/27 16:53:03;;;;;;;46.10;18.50;;;;;;;-0.79;69.10;97441.50;250111;1156;22934;-80
2020/12/27 16:58:05;;;;;;;46.23;20.73;;;;;;;-0.80;69.67;97423.34;250230;1148;23056;-79
2020/12/27 17:03:07;;;;;;;48.17;20.57;;;;;;;-0.81;69.59;97416.48;250203;1155;22957;-77
2020/12/27 17:08:09;;;;;;;57.23;21.17;;;;;;;-0.78;68.94;97411.54;250166;1150;23043;-78
2020/12/27 17:13:12;;;;;;;43.77;18.67;;;;;;;-0.75;69.13;97404.99;250310;1155;22963;-78
2020/12/27 17:18:14;;;;;;;35.20;17.73;;;;;;;-0.78;68.51;97406.28;250123;1148;26372;-77
2020/12/27 17:23:16;;;;;;;35.15;15.30;;;;;;;-0.77;68.73;97399.17;250132;1148;23038;-77
2020/12/27 17:28:19;;;;;;;30.27;14.57;;;;;;;-0.78;68.43;97385.23;250124;1155;22981;-77
2020/12/27 17:33:21;;;;;;;35.85;16.05;;;;;;;-0.78;68.41;97374.72;250140;1148;22921;-77
2020/12/27 17:38:23;;;;;;;34.33;15.70;;;;;;;-0.79;68.19;97353.94;250112;1148;23084;-76
2020/12/27 17:43:25;;;;;;;33.30;14.60;;;;;;;-0.75;68.92;97347.14;250077;1148;22929;-77
2020/12/27 17:48:28;;;;;;;42.17;18.67;;;;;;;-0.71;69.14;97338.48;250058;1148;22986;-78
2020/12/27 17:53:32;;;;;;;41.20;18.53;;;;;;;-0.73;69.11;97326.63;250084;1155;22963;-77
2020/12/27 17:58:35;;;;;;;41.37;17.87;;;;;;;-0.75;69.01;97328.73;250228;1148;27180;-77
2020/12/27 18:03:37;;;;;;;41.00;18.33;;;;;;;-0.72;68.34;97320.34;250198;1148;22928;-78
2020/12/27 18:08:40;;;;;;;29.40;14.85;;;;;;;-0.62;68.65;97315.14;250090;1148;22953;-77
2020/12/27 18:13:43;;;;;;;41.65;19.10;;;;;;;-0.49;68.50;97294.72;250123;1156;23088;-78
2020/12/27 18:18:59;;;;;;;47.73;22.03;;;;;;;-0.38;69.01;97285.84;250072;1148;22935;-77
2020/12/27 18:24:01;;;;;;;47.15;23.00;;;;;;;-0.35;69.29;97278.25;250194;1155;22980;-77
2020/12/27 18:29:03;;;;;;;45.60;20.53;;;;;;;-0.30;68.97;97280.11;250467;1148;22943;-77
2020/12/27 18:34:05;;;;;;;41.40;17.30;;;;;;;-0.19;69.17;97270.45;250152;1155;22931;-76
2020/12/27 18:39:08;;;;;;;46.57;19.97;;;;;;;-0.07;69.54;97260.51;250319;1148;22963;-76
2020/12/27 18:44:10;;;;;;;33.95;15.40;;;;;;;0.02;68.80;97250.27;250047;1148;22938;-77
2020/12/27 18:49:14;;;;;;;38.60;17.97;;;;;;;0.05;69.09;97231.32;250035;1150;22933;-77
2020/12/27 18:54:19;;;;;;;40.10;17.37;;;;;;;0.02;68.99;97223.95;250166;1148;23013;-75
2020/12/27 18:59:21;;;;;;;31.40;14.37;;;;;;;-0.07;68.60;97218.39;250119;1148;22932;-77
2020/12/27 19:04:24;;;;;;;36.85;15.80;;;;;;;-0.10;69.00;97216.28;250091;1155;22960;-76
2020/12/27 19:09:27;;;;;;;45.10;17.80;;;;;;;-0.03;69.19;97208.12;250074;1148;22974;-77
2020/12/27 19:14:29;;;;;;;42.20;18.10;;;;;;;0.07;68.96;97202.91;250048;1148;22930;-77
2020/12/27 19:19:31;;;;;;;38.73;16.93;;;;;;;0.14;68.97;97182.38;250074;1148;22956;-75
2020/12/27 19:24:34;;;;;;;45.30;19.57;;;;;;;0.22;68.84;97170.54;250221;1156;22983;-79
2020/12/27 19:29:37;;;;;;;38.60;17.95;;;;;;;0.29;68.50;97171.08;250125;1148;22960;-77
2020/12/27 19:34:39;;;;;;;46.27;19.70;;;;;;;0.38;68.57;97173.20;250276;1151;23071;-77
2020/12/27 19:39:45;;;;;;;38.43;16.93;;;;;;;0.44;69.03;97169.53;250083;1148;22983;-78
2020/12/27 19:44:47;;;;;;;36.70;16.33;;;;;;;0.57;69.05;97153.20;250258;1155;22934;-78
2020/12/27 19:49:49;;;;;;;39.70;17.30;;;;;;;0.70;68.79;97144.00;250239;1148;22981;-77
2020/12/27 19:54:51;;;;;;;34.40;16.53;;;;;;;0.79;68.76;97138.98;250295;1148;23393;-77
2020/12/27 19:59:53;;;;;;;52.20;22.70;;;;;;;0.84;68.56;97141.63;250192;1148;23019;-77
2020/12/27 20:04:55;;;;;;;52.63;21.63;;;;;;;0.84;68.22;97137.13;250270;1151;23020;-77
2020/12/27 20:09:58;;;;;;;71.70;29.40;;;;;;;0.89;68.59;97135.55;250189;1148;22929;-77
2020/12/27 20:15:01;;;;;;;71.57;29.13;;;;;;;0.87;68.49;97111.28;250266;1156;22960;-75
2020/12/27 20:20:04;;;;;;;66.80;27.55;;;;;;;0.84;68.37;97109.98;250427;1148;22984;-77
2020/12/27 20:25:06;;;;;;;66.97;26.53;;;;;;;0.83;68.71;97098.63;250360;1148;23069;-77
2020/12/27 20:30:10;;;;;;;56.07;24.37;;;;;;;0.83;68.95;97088.09;250437;1156;22953;-76
2020/12/27 20:35:12;;;;;;;49.67;21.67;;;;;;;0.84;68.30;97080.98;250303;1148;24421;-76
2020/12/27 20:40:14;;;;;;;47.40;20.60;;;;;;;0.86;68.39;97063.05;250242;1148;23016;-76
2020/12/27 20:45:17;;;;;;;44.13;20.07;;;;;;;0.85;69.15;97059.63;250235;1148;22956;-77
2020/12/27 20:50:19;;;;;;;48.23;21.23;;;;;;;0.87;68.72;97051.45;250183;1148;23197;-78
2020/12/27 20:55:23;;;;;;;49.63;22.07;;;;;;;0.94;68.96;97035.36;250225;1148;23024;-75
2020/12/27 21:00:26;;;;;;;55.40;23.20;;;;;;;1.00;69.48;97032.41;250159;1148;23088;-77
2020/12/27 21:05:31;;;;;;;47.77;21.50;;;;;;;1.04;69.56;97019.49;250163;1148;23059;-76
2020/12/27 21:10:34;;;;;;;46.37;20.43;;;;;;;1.01;69.29;96991.81;250190;1148;22925;-77
2020/12/27 21:15:37;;;;;;;35.13;17.53;;;;;;;0.93;70.17;96994.22;250178;1156;22925;-77
2020/12/27 21:20:39;;;;;;;43.60;20.70;;;;;;;0.87;70.07;96988.17;250113;1148;22921;-76
2020/12/27 21:25:41;;;;;;;40.27;19.30;;;;;;;0.87;70.47;96984.73;250136;1155;23069;-77
2020/12/27 21:30:43;;;;;;;34.70;15.40;;;;;;;0.84;70.31;96967.63;250066;1148;22998;-75
2020/12/27 21:35:46;;;;;;;34.70;16.27;;;;;;;0.81;70.27;96957.59;250156;1148;22933;-75
2020/12/27 21:40:48;;;;;;;31.20;15.35;;;;;;;0.81;71.07;96949.69;250145;1148;22935;-75
2020/12/27 21:45:50;;;;;;;49.47;21.07;;;;;;;0.84;71.33;96944.69;250074;1150;22921;-76
2020/12/27 21:50:52;;;;;;;50.47;21.97;;;;;;;0.92;71.21;96935.41;250077;1151;22937;-75
2020/12/27 21:55:54;;;;;;;31.20;14.10;;;;;;;1.13;72.59;96937.95;250010;1148;22981;-78
2020/12/27 22:00:56;;;;;;;27.55;11.85;;;;;;;1.47;73.62;96918.75;250046;1148;23041;-79
2020/12/27 22:05:58;;;;;;;31.27;12.37;;;;;;;1.77;73.02;96912.47;250141;1155;22959;-75
2020/12/27 22:11:01;;;;;;;23.67;10.23;;;;;;;2.02;73.93;96897.48;250255;1147;22932;-77
2020/12/27 22:16:03;;;;;;;21.75;9.85;;;;;;;2.30;73.39;96892.45;250089;1148;23406;-76
2020/12/27 22:21:06;;;;;;;21.95;9.05;;;;;;;2.55;73.78;96884.23;250118;1151;22960;-76
2020/12/27 22:26:13;;;;;;;17.00;7.70;;;;;;;2.79;73.76;96872.85;250175;1150;23014;-75
2020/12/27 22:31:15;;;;;;;18.03;8.23;;;;;;;2.99;73.83;96882.37;250270;1148;22947;-78
2020/12/27 22:36:21;;;;;;;15.20;7.47;;;;;;;3.15;73.65;96880.31;250020;1148;22934;-77
2020/12/27 22:41:23;;;;;;;18.40;7.87;;;;;;;3.32;73.89;96873.73;250222;1150;22931;-77
2020/12/27 22:46:25;;;;;;;14.93;7.50;;;;;;;3.43;73.69;96864.57;250197;1149;22938;-78
2020/12/27 22:51:27;;;;;;;15.03;7.40;;;;;;;3.53;73.81;96853.03;250014;1156;22987;-77
2020/12/27 22:56:29;;;;;;;18.20;8.53;;;;;;;3.65;73.31;96847.27;250140;1151;22927;-76
2020/12/27 23:01:33;;;;;;;30.63;15.60;;;;;;;3.48;71.60;96823.98;250006;1151;22987;-76
2020/12/27 23:06:36;;;;;;;32.83;15.80;;;;;;;3.24;71.27;96817.72;250488;1150;23020;-74
2020/12/27 23:11:40;;;;;;;35.43;15.63;;;;;;;3.01;71.37;96811.46;250185;1148;27129;-75
2020/12/27 23:16:42;;;;;;;37.10;16.95;;;;;;;2.84;71.28;96806.68;250193;1151;23010;-77
2020/12/27 23:21:44;;;;;;;40.20;18.30;;;;;;;2.54;71.24;96784.85;250310;1151;22931;-76
2020/12/27 23:26:47;;;;;;;35.80;17.30;;;;;;;2.18;71.32;96766.83;250430;1148;23305;-77